sensor_id;sensor_type;location;lat;lon;timestamp;P1;durP1;ratioP1;P2;durP2;ratioP2
55328;SDS011;41205;44.264;19.884;2023-07-02T00:02:08;9.98;;;7.57;;
55328;SDS011;41205;44.264;19.884;2023-07-02T00:04:34;8.57;;;7.32;;
55328;SDS011;41205;44.264;19.884;2023-07-02T00:06:59;9.23;;;7.13;;
55328;SDS011;41205;44.264;19.884;2023-07-02T00:09:25;9.77;;;7.43;;
55328;SDS011;41205;44.264;19.884;2023-07-02T00:11:51;11.77;;;8.88;;
55328;SDS011;41205;44.264;19.884;2023-07-02T00:14:17;13.48;;;8.35;;
55328;SDS011;41205;44.264;19.884;2023-07-02T00:16:46;10.63;;;8.40;;
55328;SDS011;41205;44.264;19.884;2023-07-02T00:19:13;9.15;;;7.93;;
55328;SDS011;41205;44.264;19.884;2023-07-02T00:21:39;16.10;;;8.52;;
55328;SDS011;41205;44.264;19.884;2023-07-02T00:24:06;12.10;;;8.32;;
55328;SDS011;41205;44.264;19.884;2023-07-02T00:26:34;9.57;;;7.82;;
55328;SDS011;41205;44.264;19.884;2023-07-02T00:29:00;11.10;;;8.95;;
55328;SDS011;41205;44.264;19.884;2023-07-02T00:31:26;10.63;;;8.80;;
55328;SDS011;41205;44.264;19.884;2023-07-02T00:33:51;14.60;;;8.98;;
55328;SDS011;41205;44.264;19.884;2023-07-02T00:36:17;13.35;;;8.57;;
55328;SDS011;41205;44.264;19.884;2023-07-02T00:38:46;11.00;;;8.35;;
55328;SDS011;41205;44.264;19.884;2023-07-02T00:41:13;10.07;;;7.78;;
55328;SDS011;41205;44.264;19.884;2023-07-02T00:43:38;11.20;;;8.65;;
55328;SDS011;41205;44.264;19.884;2023-07-02T00:46:08;11.18;;;8.65;;
55328;SDS011;41205;44.264;19.884;2023-07-02T00:48:51;10.30;;;8.70;;
55328;SDS011;41205;44.264;19.884;2023-07-02T00:51:22;10.68;;;8.43;;
55328;SDS011;41205;44.264;19.884;2023-07-02T00:53:49;11.60;;;8.55;;
55328;SDS011;41205;44.264;19.884;2023-07-02T00:56:17;10.38;;;8.30;;
55328;SDS011;41205;44.264;19.884;2023-07-02T00:58:44;11.82;;;9.00;;
55328;SDS011;41205;44.264;19.884;2023-07-02T01:01:20;10.82;;;8.50;;
55328;SDS011;41205;44.264;19.884;2023-07-02T01:03:50;9.93;;;8.43;;
55328;SDS011;41205;44.264;19.884;2023-07-02T01:06:18;12.00;;;8.63;;
55328;SDS011;41205;44.264;19.884;2023-07-02T01:08:50;14.40;;;8.27;;
55328;SDS011;41205;44.264;19.884;2023-07-02T01:11:18;10.45;;;8.43;;
55328;SDS011;41205;44.264;19.884;2023-07-02T01:13:45;11.40;;;9.05;;
55328;SDS011;41205;44.264;19.884;2023-07-02T01:16:11;9.55;;;7.78;;
55328;SDS011;41205;44.264;19.884;2023-07-02T01:18:37;10.52;;;8.73;;
55328;SDS011;41205;44.264;19.884;2023-07-02T01:21:04;11.85;;;9.35;;
55328;SDS011;41205;44.264;19.884;2023-07-02T01:23:31;10.90;;;9.35;;
55328;SDS011;41205;44.264;19.884;2023-07-02T01:25:58;11.50;;;9.10;;
55328;SDS011;41205;44.264;19.884;2023-07-02T01:28:24;10.15;;;8.23;;
55328;SDS011;41205;44.264;19.884;2023-07-02T01:30:51;12.77;;;9.32;;
55328;SDS011;41205;44.264;19.884;2023-07-02T01:33:16;17.70;;;8.52;;
55328;SDS011;41205;44.264;19.884;2023-07-02T01:35:42;12.63;;;8.40;;
55328;SDS011;41205;44.264;19.884;2023-07-02T01:38:08;10.63;;;9.38;;
55328;SDS011;41205;44.264;19.884;2023-07-02T01:40:33;10.60;;;8.70;;
55328;SDS011;41205;44.264;19.884;2023-07-02T01:42:59;10.82;;;8.48;;
55328;SDS011;41205;44.264;19.884;2023-07-02T01:45:25;11.95;;;8.82;;
55328;SDS011;41205;44.264;19.884;2023-07-02T01:47:51;15.05;;;8.88;;
55328;SDS011;41205;44.264;19.884;2023-07-02T01:50:17;11.70;;;9.05;;
55328;SDS011;41205;44.264;19.884;2023-07-02T01:52:42;12.60;;;9.35;;
55328;SDS011;41205;44.264;19.884;2023-07-02T01:55:08;12.95;;;8.90;;
55328;SDS011;41205;44.264;19.884;2023-07-02T01:57:34;10.88;;;9.70;;
55328;SDS011;41205;44.264;19.884;2023-07-02T02:00:00;10.93;;;9.05;;
55328;SDS011;41205;44.264;19.884;2023-07-02T02:02:25;11.73;;;8.13;;
55328;SDS011;41205;44.264;19.884;2023-07-02T02:04:51;12.52;;;9.20;;
55328;SDS011;41205;44.264;19.884;2023-07-02T02:07:17;11.35;;;8.80;;
55328;SDS011;41205;44.264;19.884;2023-07-02T02:09:43;11.23;;;8.95;;
55328;SDS011;41205;44.264;19.884;2023-07-02T02:12:08;11.30;;;8.73;;
55328;SDS011;41205;44.264;19.884;2023-07-02T02:14:35;17.42;;;9.05;;
55328;SDS011;41205;44.264;19.884;2023-07-02T02:17:00;11.70;;;9.02;;
55328;SDS011;41205;44.264;19.884;2023-07-02T02:19:26;11.70;;;8.30;;
55328;SDS011;41205;44.264;19.884;2023-07-02T02:21:52;15.57;;;9.73;;
55328;SDS011;41205;44.264;19.884;2023-07-02T02:24:17;13.15;;;9.10;;
55328;SDS011;41205;44.264;19.884;2023-07-02T02:26:43;12.57;;;9.73;;
55328;SDS011;41205;44.264;19.884;2023-07-02T02:29:09;10.82;;;8.70;;
55328;SDS011;41205;44.264;19.884;2023-07-02T02:31:34;13.05;;;10.25;;
55328;SDS011;41205;44.264;19.884;2023-07-02T02:34:00;13.68;;;9.70;;
55328;SDS011;41205;44.264;19.884;2023-07-02T02:36:26;12.77;;;9.55;;
55328;SDS011;41205;44.264;19.884;2023-07-02T02:38:51;12.32;;;9.02;;
55328;SDS011;41205;44.264;19.884;2023-07-02T02:41:17;11.75;;;9.20;;
55328;SDS011;41205;44.264;19.884;2023-07-02T02:43:43;11.73;;;8.40;;
55328;SDS011;41205;44.264;19.884;2023-07-02T02:46:10;13.40;;;9.88;;
55328;SDS011;41205;44.264;19.884;2023-07-02T02:48:36;12.30;;;8.70;;
55328;SDS011;41205;44.264;19.884;2023-07-02T02:51:02;11.82;;;9.40;;
55328;SDS011;41205;44.264;19.884;2023-07-02T02:53:28;11.13;;;9.13;;
55328;SDS011;41205;44.264;19.884;2023-07-02T02:55:54;12.40;;;9.20;;
55328;SDS011;41205;44.264;19.884;2023-07-02T02:58:20;11.88;;;7.80;;
55328;SDS011;41205;44.264;19.884;2023-07-02T03:00:47;12.63;;;8.00;;
55328;SDS011;41205;44.264;19.884;2023-07-02T03:03:13;11.77;;;9.30;;
55328;SDS011;41205;44.264;19.884;2023-07-02T03:05:39;12.43;;;9.15;;
55328;SDS011;41205;44.264;19.884;2023-07-02T03:08:05;12.60;;;9.15;;
55328;SDS011;41205;44.264;19.884;2023-07-02T03:10:31;12.70;;;9.30;;
55328;SDS011;41205;44.264;19.884;2023-07-02T03:12:57;12.10;;;8.43;;
55328;SDS011;41205;44.264;19.884;2023-07-02T03:15:23;14.80;;;9.15;;
55328;SDS011;41205;44.264;19.884;2023-07-02T03:17:48;11.18;;;8.38;;
55328;SDS011;41205;44.264;19.884;2023-07-02T03:20:14;10.75;;;9.63;;
55328;SDS011;41205;44.264;19.884;2023-07-02T03:22:40;10.90;;;8.32;;
55328;SDS011;41205;44.264;19.884;2023-07-02T03:25:05;11.05;;;8.35;;
55328;SDS011;41205;44.264;19.884;2023-07-02T03:27:31;11.82;;;8.98;;
55328;SDS011;41205;44.264;19.884;2023-07-02T03:29:57;10.50;;;9.40;;
55328;SDS011;41205;44.264;19.884;2023-07-02T03:32:23;11.88;;;9.18;;
55328;SDS011;41205;44.264;19.884;2023-07-02T03:34:49;11.57;;;9.07;;
55328;SDS011;41205;44.264;19.884;2023-07-02T03:37:15;11.27;;;8.23;;
55328;SDS011;41205;44.264;19.884;2023-07-02T03:39:40;11.55;;;8.95;;
55328;SDS011;41205;44.264;19.884;2023-07-02T03:42:06;12.73;;;8.88;;
55328;SDS011;41205;44.264;19.884;2023-07-02T03:44:32;11.15;;;8.70;;
55328;SDS011;41205;44.264;19.884;2023-07-02T03:46:57;12.30;;;9.13;;
55328;SDS011;41205;44.264;19.884;2023-07-02T03:49:23;10.68;;;8.80;;
55328;SDS011;41205;44.264;19.884;2023-07-02T03:51:49;12.35;;;9.70;;
55328;SDS011;41205;44.264;19.884;2023-07-02T03:54:15;11.60;;;9.05;;
55328;SDS011;41205;44.264;19.884;2023-07-02T03:56:40;12.43;;;8.68;;
55328;SDS011;41205;44.264;19.884;2023-07-02T03:59:06;11.95;;;8.68;;
55328;SDS011;41205;44.264;19.884;2023-07-02T04:01:32;13.00;;;8.60;;
55328;SDS011;41205;44.264;19.884;2023-07-02T04:03:57;10.88;;;8.88;;
55328;SDS011;41205;44.264;19.884;2023-07-02T04:06:23;11.90;;;8.65;;
55328;SDS011;41205;44.264;19.884;2023-07-02T04:08:49;11.73;;;9.10;;
55328;SDS011;41205;44.264;19.884;2023-07-02T04:11:14;11.95;;;9.05;;
55328;SDS011;41205;44.264;19.884;2023-07-02T04:13:40;12.52;;;8.55;;
55328;SDS011;41205;44.264;19.884;2023-07-02T04:16:06;13.18;;;8.68;;
55328;SDS011;41205;44.264;19.884;2023-07-02T04:18:32;13.10;;;9.57;;
55328;SDS011;41205;44.264;19.884;2023-07-02T04:20:58;11.75;;;8.90;;
55328;SDS011;41205;44.264;19.884;2023-07-02T04:23:24;14.25;;;8.07;;
55328;SDS011;41205;44.264;19.884;2023-07-02T04:25:50;14.32;;;8.70;;
55328;SDS011;41205;44.264;19.884;2023-07-02T04:28:16;12.10;;;8.65;;
55328;SDS011;41205;44.264;19.884;2023-07-02T04:30:42;12.00;;;8.95;;
55328;SDS011;41205;44.264;19.884;2023-07-02T04:33:08;12.73;;;8.68;;
55328;SDS011;41205;44.264;19.884;2023-07-02T04:35:34;9.98;;;8.77;;
55328;SDS011;41205;44.264;19.884;2023-07-02T04:38:02;13.23;;;9.63;;
55328;SDS011;41205;44.264;19.884;2023-07-02T04:40:28;12.50;;;9.32;;
55328;SDS011;41205;44.264;19.884;2023-07-02T04:42:54;12.20;;;8.65;;
55328;SDS011;41205;44.264;19.884;2023-07-02T04:45:23;11.43;;;8.20;;
55328;SDS011;41205;44.264;19.884;2023-07-02T04:48:00;9.82;;;8.27;;
55328;SDS011;41205;44.264;19.884;2023-07-02T04:50:26;10.13;;;8.85;;
55328;SDS011;41205;44.264;19.884;2023-07-02T04:52:51;11.52;;;8.98;;
55328;SDS011;41205;44.264;19.884;2023-07-02T04:55:17;11.13;;;9.25;;
55328;SDS011;41205;44.264;19.884;2023-07-02T04:57:43;16.67;;;9.13;;
55328;SDS011;41205;44.264;19.884;2023-07-02T05:00:09;9.07;;;8.18;;
55328;SDS011;41205;44.264;19.884;2023-07-02T05:02:35;9.25;;;8.35;;
55328;SDS011;41205;44.264;19.884;2023-07-02T05:05:01;10.98;;;8.30;;
55328;SDS011;41205;44.264;19.884;2023-07-02T05:07:27;11.52;;;8.60;;
55328;SDS011;41205;44.264;19.884;2023-07-02T05:09:53;14.65;;;8.90;;
55328;SDS011;41205;44.264;19.884;2023-07-02T05:12:19;10.65;;;8.30;;
55328;SDS011;41205;44.264;19.884;2023-07-02T05:14:44;9.32;;;7.50;;
55328;SDS011;41205;44.264;19.884;2023-07-02T05:17:11;9.30;;;8.40;;
55328;SDS011;41205;44.264;19.884;2023-07-02T05:19:39;9.60;;;7.43;;
55328;SDS011;41205;44.264;19.884;2023-07-02T05:22:05;8.90;;;7.97;;
55328;SDS011;41205;44.264;19.884;2023-07-02T05:24:31;9.55;;;8.55;;
55328;SDS011;41205;44.264;19.884;2023-07-02T05:26:57;9.80;;;7.35;;
55328;SDS011;41205;44.264;19.884;2023-07-02T05:29:23;10.32;;;7.63;;
55328;SDS011;41205;44.264;19.884;2023-07-02T05:31:48;8.07;;;7.28;;
55328;SDS011;41205;44.264;19.884;2023-07-02T05:34:14;10.32;;;7.18;;
55328;SDS011;41205;44.264;19.884;2023-07-02T05:36:40;8.95;;;7.18;;
55328;SDS011;41205;44.264;19.884;2023-07-02T05:39:05;8.93;;;7.07;;
55328;SDS011;41205;44.264;19.884;2023-07-02T05:41:31;8.60;;;7.07;;
55328;SDS011;41205;44.264;19.884;2023-07-02T05:43:57;8.90;;;7.00;;
55328;SDS011;41205;44.264;19.884;2023-07-02T05:46:23;11.93;;;7.13;;
55328;SDS011;41205;44.264;19.884;2023-07-02T05:48:49;10.05;;;8.15;;
55328;SDS011;41205;44.264;19.884;2023-07-02T05:51:19;10.18;;;7.60;;
55328;SDS011;41205;44.264;19.884;2023-07-02T05:53:46;12.73;;;7.55;;
55328;SDS011;41205;44.264;19.884;2023-07-02T05:56:12;9.98;;;7.22;;
55328;SDS011;41205;44.264;19.884;2023-07-02T05:58:37;8.50;;;6.88;;
55328;SDS011;41205;44.264;19.884;2023-07-02T06:01:03;8.68;;;7.30;;
55328;SDS011;41205;44.264;19.884;2023-07-02T06:03:30;8.52;;;7.25;;
55328;SDS011;41205;44.264;19.884;2023-07-02T06:05:57;7.82;;;7.00;;
55328;SDS011;41205;44.264;19.884;2023-07-02T06:08:22;11.30;;;8.40;;
55328;SDS011;41205;44.264;19.884;2023-07-02T06:10:48;9.50;;;8.40;;
55328;SDS011;41205;44.264;19.884;2023-07-02T06:13:14;9.07;;;7.68;;
55328;SDS011;41205;44.264;19.884;2023-07-02T06:15:40;10.60;;;8.80;;
55328;SDS011;41205;44.264;19.884;2023-07-02T06:18:06;8.93;;;7.38;;
55328;SDS011;41205;44.264;19.884;2023-07-02T06:20:31;11.52;;;7.47;;
55328;SDS011;41205;44.264;19.884;2023-07-02T06:22:57;9.30;;;8.00;;
55328;SDS011;41205;44.264;19.884;2023-07-02T06:25:23;9.90;;;8.00;;
55328;SDS011;41205;44.264;19.884;2023-07-02T06:27:49;9.60;;;8.13;;
55328;SDS011;41205;44.264;19.884;2023-07-02T06:30:14;9.00;;;7.47;;
55328;SDS011;41205;44.264;19.884;2023-07-02T06:32:40;9.45;;;7.82;;
55328;SDS011;41205;44.264;19.884;2023-07-02T06:35:06;10.55;;;7.70;;
55328;SDS011;41205;44.264;19.884;2023-07-02T06:37:32;9.90;;;7.38;;
55328;SDS011;41205;44.264;19.884;2023-07-02T06:39:58;8.98;;;7.50;;
55328;SDS011;41205;44.264;19.884;2023-07-02T06:42:24;8.95;;;7.28;;
55328;SDS011;41205;44.264;19.884;2023-07-02T06:44:51;11.43;;;7.53;;
55328;SDS011;41205;44.264;19.884;2023-07-02T06:47:16;10.25;;;7.95;;
55328;SDS011;41205;44.264;19.884;2023-07-02T06:49:42;8.65;;;7.75;;
55328;SDS011;41205;44.264;19.884;2023-07-02T06:52:08;9.40;;;8.18;;
55328;SDS011;41205;44.264;19.884;2023-07-02T06:54:34;9.05;;;7.72;;
55328;SDS011;41205;44.264;19.884;2023-07-02T06:57:00;11.77;;;8.00;;
55328;SDS011;41205;44.264;19.884;2023-07-02T06:59:26;9.05;;;8.15;;
55328;SDS011;41205;44.264;19.884;2023-07-02T07:01:51;8.52;;;7.63;;
55328;SDS011;41205;44.264;19.884;2023-07-02T07:04:17;8.80;;;7.80;;
55328;SDS011;41205;44.264;19.884;2023-07-02T07:06:43;8.88;;;7.95;;
55328;SDS011;41205;44.264;19.884;2023-07-02T07:09:09;9.00;;;7.30;;
55328;SDS011;41205;44.264;19.884;2023-07-02T07:11:35;8.57;;;7.28;;
55328;SDS011;41205;44.264;19.884;2023-07-02T07:14:00;9.40;;;7.40;;
55328;SDS011;41205;44.264;19.884;2023-07-02T07:16:26;10.77;;;7.43;;
55328;SDS011;41205;44.264;19.884;2023-07-02T07:18:52;8.10;;;7.20;;
55328;SDS011;41205;44.264;19.884;2023-07-02T07:21:18;9.98;;;8.32;;
55328;SDS011;41205;44.264;19.884;2023-07-02T07:23:44;8.90;;;7.00;;
55328;SDS011;41205;44.264;19.884;2023-07-02T07:26:09;8.75;;;6.88;;
55328;SDS011;41205;44.264;19.884;2023-07-02T07:28:35;7.65;;;6.85;;
55328;SDS011;41205;44.264;19.884;2023-07-02T07:31:01;9.77;;;8.30;;
55328;SDS011;41205;44.264;19.884;2023-07-02T07:33:27;8.50;;;7.53;;
55328;SDS011;41205;44.264;19.884;2023-07-02T07:35:53;8.25;;;7.45;;
55328;SDS011;41205;44.264;19.884;2023-07-02T07:38:18;9.95;;;8.38;;
55328;SDS011;41205;44.264;19.884;2023-07-02T07:40:44;9.63;;;7.55;;
55328;SDS011;41205;44.264;19.884;2023-07-02T07:43:10;8.50;;;7.22;;
55328;SDS011;41205;44.264;19.884;2023-07-02T07:45:36;9.48;;;7.32;;
55328;SDS011;41205;44.264;19.884;2023-07-02T07:48:02;9.32;;;8.27;;
55328;SDS011;41205;44.264;19.884;2023-07-02T07:50:29;8.73;;;7.53;;
55328;SDS011;41205;44.264;19.884;2023-07-02T07:52:55;11.25;;;7.32;;
55328;SDS011;41205;44.264;19.884;2023-07-02T07:55:21;8.25;;;7.10;;
55328;SDS011;41205;44.264;19.884;2023-07-02T07:57:46;8.80;;;7.75;;
55328;SDS011;41205;44.264;19.884;2023-07-02T08:00:12;8.40;;;7.55;;
55328;SDS011;41205;44.264;19.884;2023-07-02T08:02:38;10.43;;;7.70;;
55328;SDS011;41205;44.264;19.884;2023-07-02T08:05:04;7.88;;;7.07;;
55328;SDS011;41205;44.264;19.884;2023-07-02T08:07:31;8.95;;;6.50;;
55328;SDS011;41205;44.264;19.884;2023-07-02T08:09:57;8.20;;;6.97;;
55328;SDS011;41205;44.264;19.884;2023-07-02T08:12:23;10.20;;;7.10;;
55328;SDS011;41205;44.264;19.884;2023-07-02T08:14:49;13.48;;;7.13;;
55328;SDS011;41205;44.264;19.884;2023-07-02T08:17:15;9.10;;;7.35;;
55328;SDS011;41205;44.264;19.884;2023-07-02T08:19:40;11.27;;;7.78;;
55328;SDS011;41205;44.264;19.884;2023-07-02T08:22:06;9.65;;;7.72;;
55328;SDS011;41205;44.264;19.884;2023-07-02T08:24:32;10.13;;;7.90;;
55328;SDS011;41205;44.264;19.884;2023-07-02T08:26:58;8.73;;;6.80;;
55328;SDS011;41205;44.264;19.884;2023-07-02T08:29:26;8.45;;;7.35;;
55328;SDS011;41205;44.264;19.884;2023-07-02T08:31:52;10.73;;;8.15;;
55328;SDS011;41205;44.264;19.884;2023-07-02T08:34:17;10.68;;;7.63;;
55328;SDS011;41205;44.264;19.884;2023-07-02T08:36:43;8.65;;;7.75;;
55328;SDS011;41205;44.264;19.884;2023-07-02T08:39:09;8.93;;;7.47;;
55328;SDS011;41205;44.264;19.884;2023-07-02T08:41:45;9.75;;;7.45;;
55328;SDS011;41205;44.264;19.884;2023-07-02T08:44:12;15.05;;;7.60;;
55328;SDS011;41205;44.264;19.884;2023-07-02T08:46:41;10.57;;;8.18;;
55328;SDS011;41205;44.264;19.884;2023-07-02T08:49:07;9.52;;;8.25;;
55328;SDS011;41205;44.264;19.884;2023-07-02T08:51:34;9.32;;;8.43;;
55328;SDS011;41205;44.264;19.884;2023-07-02T08:54:03;13.05;;;8.18;;
55328;SDS011;41205;44.264;19.884;2023-07-02T08:56:30;10.30;;;8.20;;
55328;SDS011;41205;44.264;19.884;2023-07-02T08:58:55;10.00;;;8.20;;
55328;SDS011;41205;44.264;19.884;2023-07-02T09:01:21;9.20;;;8.13;;
55328;SDS011;41205;44.264;19.884;2023-07-02T09:03:48;12.15;;;8.75;;
55328;SDS011;41205;44.264;19.884;2023-07-02T09:06:16;8.00;;;7.10;;
55328;SDS011;41205;44.264;19.884;2023-07-02T09:08:43;9.13;;;8.00;;
55328;SDS011;41205;44.264;19.884;2023-07-02T09:11:09;8.63;;;7.68;;
55328;SDS011;41205;44.264;19.884;2023-07-02T09:13:49;11.52;;;8.02;;
55328;SDS011;41205;44.264;19.884;2023-07-02T09:17:00;11.45;;;7.97;;
55328;SDS011;41205;44.264;19.884;2023-07-02T09:19:10;10.65;;;8.63;;
55328;SDS011;41205;44.264;19.884;2023-07-02T09:21:47;10.60;;;8.68;;
55328;SDS011;41205;44.264;19.884;2023-07-02T09:26:47;7.82;;;7.03;;
55328;SDS011;41205;44.264;19.884;2023-07-02T09:29:28;10.15;;;7.88;;
55328;SDS011;41205;44.264;19.884;2023-07-02T09:31:56;10.48;;;8.63;;
55328;SDS011;41205;44.264;19.884;2023-07-02T09:34:31;10.43;;;8.15;;
55328;SDS011;41205;44.264;19.884;2023-07-02T09:36:58;9.82;;;8.15;;
55328;SDS011;41205;44.264;19.884;2023-07-02T09:39:28;9.88;;;8.88;;
55328;SDS011;41205;44.264;19.884;2023-07-02T09:41:55;9.75;;;8.75;;
55328;SDS011;41205;44.264;19.884;2023-07-02T09:44:24;10.85;;;8.48;;
55328;SDS011;41205;44.264;19.884;2023-07-02T09:49:27;8.95;;;8.05;;
55328;SDS011;41205;44.264;19.884;2023-07-02T09:52:02;10.02;;;8.38;;
55328;SDS011;41205;44.264;19.884;2023-07-02T09:54:30;11.93;;;9.20;;
55328;SDS011;41205;44.264;19.884;2023-07-02T09:56:56;12.50;;;8.57;;
55328;SDS011;41205;44.264;19.884;2023-07-02T09:59:23;12.70;;;9.48;;
55328;SDS011;41205;44.264;19.884;2023-07-02T10:01:49;12.98;;;9.18;;
55328;SDS011;41205;44.264;19.884;2023-07-02T10:04:17;10.13;;;9.10;;
55328;SDS011;41205;44.264;19.884;2023-07-02T10:06:44;10.60;;;9.45;;
55328;SDS011;41205;44.264;19.884;2023-07-02T10:09:10;12.55;;;10.75;;
55328;SDS011;41205;44.264;19.884;2023-07-02T10:11:36;12.52;;;10.43;;
55328;SDS011;41205;44.264;19.884;2023-07-02T10:14:01;10.82;;;9.73;;
55328;SDS011;41205;44.264;19.884;2023-07-02T10:16:27;10.10;;;8.48;;
55328;SDS011;41205;44.264;19.884;2023-07-02T10:18:53;13.32;;;9.43;;
55328;SDS011;41205;44.264;19.884;2023-07-02T10:21:19;12.38;;;9.40;;
55328;SDS011;41205;44.264;19.884;2023-07-02T10:23:45;11.90;;;9.25;;
55328;SDS011;41205;44.264;19.884;2023-07-02T10:26:15;10.25;;;7.75;;
55328;SDS011;41205;44.264;19.884;2023-07-02T10:29:00;10.77;;;8.40;;
55328;SDS011;41205;44.264;19.884;2023-07-02T10:31:25;11.60;;;8.55;;
55328;SDS011;41205;44.264;19.884;2023-07-02T10:33:51;10.43;;;8.98;;
55328;SDS011;41205;44.264;19.884;2023-07-02T10:36:18;11.35;;;8.73;;
55328;SDS011;41205;44.264;19.884;2023-07-02T10:38:48;12.10;;;9.98;;
55328;SDS011;41205;44.264;19.884;2023-07-02T10:41:28;12.48;;;8.32;;
55328;SDS011;41205;44.264;19.884;2023-07-02T10:44:04;11.32;;;8.77;;
55328;SDS011;41205;44.264;19.884;2023-07-02T10:46:34;10.40;;;9.30;;
55328;SDS011;41205;44.264;19.884;2023-07-02T10:49:00;10.70;;;9.25;;
55328;SDS011;41205;44.264;19.884;2023-07-02T10:51:26;11.07;;;9.57;;
55328;SDS011;41205;44.264;19.884;2023-07-02T10:54:00;12.32;;;10.00;;
55328;SDS011;41205;44.264;19.884;2023-07-02T10:56:29;13.50;;;10.15;;
55328;SDS011;41205;44.264;19.884;2023-07-02T10:58:55;10.38;;;9.27;;
55328;SDS011;41205;44.264;19.884;2023-07-02T11:01:22;10.77;;;8.13;;
55328;SDS011;41205;44.264;19.884;2023-07-02T11:03:59;11.15;;;9.10;;
55328;SDS011;41205;44.264;19.884;2023-07-02T11:06:32;10.85;;;9.75;;
55328;SDS011;41205;44.264;19.884;2023-07-02T11:09:00;11.18;;;9.63;;
55328;SDS011;41205;44.264;19.884;2023-07-02T11:11:26;13.25;;;9.88;;
55328;SDS011;41205;44.264;19.884;2023-07-02T11:13:52;12.93;;;9.77;;
55328;SDS011;41205;44.264;19.884;2023-07-02T11:16:23;11.07;;;8.68;;
55328;SDS011;41205;44.264;19.884;2023-07-02T11:18:53;9.50;;;8.60;;
55328;SDS011;41205;44.264;19.884;2023-07-02T11:21:33;11.97;;;9.60;;
55328;SDS011;41205;44.264;19.884;2023-07-02T11:24:03;11.57;;;10.15;;
55328;SDS011;41205;44.264;19.884;2023-07-02T11:26:35;13.10;;;9.88;;
55328;SDS011;41205;44.264;19.884;2023-07-02T11:29:01;10.57;;;9.55;;
55328;SDS011;41205;44.264;19.884;2023-07-02T11:31:27;13.70;;;10.57;;
55328;SDS011;41205;44.264;19.884;2023-07-02T11:33:53;12.02;;;10.15;;
55328;SDS011;41205;44.264;19.884;2023-07-02T11:36:19;11.40;;;9.90;;
55328;SDS011;41205;44.264;19.884;2023-07-02T11:38:46;13.10;;;11.25;;
55328;SDS011;41205;44.264;19.884;2023-07-02T11:41:13;12.18;;;10.88;;
55328;SDS011;41205;44.264;19.884;2023-07-02T11:43:40;11.70;;;10.50;;
55328;SDS011;41205;44.264;19.884;2023-07-02T11:46:05;22.52;;;11.40;;
55328;SDS011;41205;44.264;19.884;2023-07-02T11:48:31;11.43;;;10.23;;
55328;SDS011;41205;44.264;19.884;2023-07-02T11:50:57;11.60;;;10.20;;
55328;SDS011;41205;44.264;19.884;2023-07-02T11:53:22;10.70;;;9.23;;
55328;SDS011;41205;44.264;19.884;2023-07-02T11:55:49;10.23;;;9.00;;
55328;SDS011;41205;44.264;19.884;2023-07-02T11:58:14;10.90;;;9.27;;
55328;SDS011;41205;44.264;19.884;2023-07-02T12:00:40;11.13;;;9.95;;
55328;SDS011;41205;44.264;19.884;2023-07-02T12:03:06;13.90;;;9.40;;
55328;SDS011;41205;44.264;19.884;2023-07-02T12:05:31;8.90;;;8.07;;
55328;SDS011;41205;44.264;19.884;2023-07-02T12:07:57;11.23;;;8.90;;
55328;SDS011;41205;44.264;19.884;2023-07-02T12:10:23;11.57;;;9.68;;
55328;SDS011;41205;44.264;19.884;2023-07-02T12:12:48;9.10;;;7.65;;
55328;SDS011;41205;44.264;19.884;2023-07-02T12:15:14;11.15;;;9.60;;
55328;SDS011;41205;44.264;19.884;2023-07-02T12:17:40;10.00;;;8.93;;
55328;SDS011;41205;44.264;19.884;2023-07-02T12:20:05;11.05;;;9.80;;
55328;SDS011;41205;44.264;19.884;2023-07-02T12:22:32;12.63;;;10.25;;
55328;SDS011;41205;44.264;19.884;2023-07-02T12:24:57;10.30;;;9.15;;
55328;SDS011;41205;44.264;19.884;2023-07-02T12:27:23;10.18;;;9.18;;
55328;SDS011;41205;44.264;19.884;2023-07-02T12:29:50;11.07;;;9.98;;
55328;SDS011;41205;44.264;19.884;2023-07-02T12:32:16;15.20;;;13.70;;
55328;SDS011;41205;44.264;19.884;2023-07-02T12:34:41;17.27;;;15.68;;
55328;SDS011;41205;44.264;19.884;2023-07-02T12:37:07;25.17;;;22.60;;
55328;SDS011;41205;44.264;19.884;2023-07-02T12:39:33;21.92;;;19.63;;
55328;SDS011;41205;44.264;19.884;2023-07-02T12:41:58;24.85;;;22.65;;
55328;SDS011;41205;44.264;19.884;2023-07-02T12:44:25;26.58;;;24.10;;
55328;SDS011;41205;44.264;19.884;2023-07-02T12:46:50;24.48;;;22.35;;
55328;SDS011;41205;44.264;19.884;2023-07-02T12:49:16;23.95;;;21.63;;
55328;SDS011;41205;44.264;19.884;2023-07-02T12:51:42;25.60;;;23.15;;
55328;SDS011;41205;44.264;19.884;2023-07-02T12:54:07;25.77;;;23.38;;
55328;SDS011;41205;44.264;19.884;2023-07-02T12:56:33;27.40;;;24.88;;
55328;SDS011;41205;44.264;19.884;2023-07-02T12:59:01;27.42;;;24.77;;
55328;SDS011;41205;44.264;19.884;2023-07-02T13:01:27;25.77;;;23.17;;
55328;SDS011;41205;44.264;19.884;2023-07-02T13:03:53;24.77;;;22.25;;
55328;SDS011;41205;44.264;19.884;2023-07-02T13:06:18;17.35;;;15.73;;
55328;SDS011;41205;44.264;19.884;2023-07-02T13:08:44;21.60;;;19.70;;
55328;SDS011;41205;44.264;19.884;2023-07-02T13:11:10;21.13;;;19.23;;
55328;SDS011;41205;44.264;19.884;2023-07-02T13:13:35;19.35;;;17.65;;
55328;SDS011;41205;44.264;19.884;2023-07-02T13:16:01;20.77;;;18.88;;
55328;SDS011;41205;44.264;19.884;2023-07-02T13:18:27;23.30;;;21.05;;
55328;SDS011;41205;44.264;19.884;2023-07-02T13:20:53;25.17;;;22.80;;
55328;SDS011;41205;44.264;19.884;2023-07-02T13:23:19;24.90;;;22.70;;
55328;SDS011;41205;44.264;19.884;2023-07-02T13:25:45;24.70;;;22.42;;
55328;SDS011;41205;44.264;19.884;2023-07-02T13:28:11;25.88;;;23.38;;
55328;SDS011;41205;44.264;19.884;2023-07-02T13:30:36;20.70;;;19.00;;
55328;SDS011;41205;44.264;19.884;2023-07-02T13:33:02;22.73;;;20.70;;
55328;SDS011;41205;44.264;19.884;2023-07-02T13:35:28;26.08;;;23.55;;
55328;SDS011;41205;44.264;19.884;2023-07-02T13:37:54;25.08;;;22.75;;
55328;SDS011;41205;44.264;19.884;2023-07-02T13:40:19;24.42;;;21.92;;
55328;SDS011;41205;44.264;19.884;2023-07-02T13:42:45;24.90;;;22.52;;
55328;SDS011;41205;44.264;19.884;2023-07-02T13:45:11;25.67;;;23.13;;
55328;SDS011;41205;44.264;19.884;2023-07-02T13:47:37;26.25;;;23.75;;
55328;SDS011;41205;44.264;19.884;2023-07-02T13:50:03;28.42;;;25.73;;
55328;SDS011;41205;44.264;19.884;2023-07-02T13:52:29;27.50;;;24.77;;
55328;SDS011;41205;44.264;19.884;2023-07-02T13:54:55;27.90;;;25.40;;
55328;SDS011;41205;44.264;19.884;2023-07-02T13:57:21;28.20;;;25.67;;
55328;SDS011;41205;44.264;19.884;2023-07-02T13:59:47;26.65;;;24.17;;
55328;SDS011;41205;44.264;19.884;2023-07-02T14:02:13;30.63;;;27.42;;
55328;SDS011;41205;44.264;19.884;2023-07-02T14:04:39;24.08;;;21.35;;
55328;SDS011;41205;44.264;19.884;2023-07-02T14:07:04;24.95;;;22.33;;
55328;SDS011;41205;44.264;19.884;2023-07-02T14:09:30;23.90;;;21.60;;
55328;SDS011;41205;44.264;19.884;2023-07-02T14:11:56;24.52;;;22.00;;
55328;SDS011;41205;44.264;19.884;2023-07-02T14:14:22;20.85;;;18.60;;
55328;SDS011;41205;44.264;19.884;2023-07-02T14:16:47;20.83;;;18.73;;
55328;SDS011;41205;44.264;19.884;2023-07-02T14:19:13;21.90;;;18.13;;
55328;SDS011;41205;44.264;19.884;2023-07-02T14:21:40;20.58;;;18.67;;
55328;SDS011;41205;44.264;19.884;2023-07-02T14:24:06;20.42;;;18.48;;
55328;SDS011;41205;44.264;19.884;2023-07-02T14:26:33;19.38;;;17.65;;